createdAt,value
2024-04-30T00:01:56.308Z,2.10
2024-04-30T00:04:25.157Z,2.42
2024-04-30T00:06:55.050Z,2.38
2024-04-30T00:09:22.782Z,3.38
2024-04-30T00:11:50.686Z,4.13
2024-04-30T00:14:18.518Z,2.65
2024-04-30T00:16:46.317Z,4.97
2024-04-30T00:19:14.202Z,4.05
2024-04-30T00:21:43.225Z,2.72
2024-04-30T00:24:12.342Z,7.10
2024-04-30T00:26:40.244Z,3.13
2024-04-30T00:29:08.112Z,3.00
2024-04-30T00:31:35.918Z,3.85
2024-04-30T00:34:03.668Z,7.47
2024-04-30T00:36:31.425Z,2.72
2024-04-30T00:38:59.135Z,2.38
2024-04-30T00:41:26.850Z,3.13
2024-04-30T00:43:54.516Z,5.97
2024-04-30T00:46:22.722Z,2.80
2024-04-30T00:48:50.629Z,4.50
2024-04-30T00:51:18.499Z,2.80
2024-04-30T00:53:46.213Z,3.35
2024-04-30T00:56:14.161Z,3.35
2024-04-30T00:58:42.456Z,3.67
2024-04-30T01:01:10.414Z,3.35
2024-04-30T01:03:38.253Z,2.47
2024-04-30T01:06:06.029Z,3.28
2024-04-30T01:08:33.771Z,3.10
2024-04-30T01:11:01.563Z,3.22
2024-04-30T01:13:30.871Z,2.65
2024-04-30T01:15:59.290Z,4.88
2024-04-30T01:18:27.517Z,2.72
2024-04-30T01:20:55.258Z,3.78
2024-04-30T01:23:23.055Z,2.95
2024-04-30T01:25:50.890Z,4.22
2024-04-30T01:28:18.808Z,4.43
2024-04-30T01:30:49.164Z,3.67
2024-04-30T01:33:17.452Z,4.05
2024-04-30T01:35:45.612Z,3.58
2024-04-30T01:38:13.379Z,3.17
2024-04-30T01:40:41.205Z,5.47
2024-04-30T01:43:09.135Z,3.33
2024-04-30T01:45:36.998Z,3.33
2024-04-30T01:48:05.329Z,4.55
2024-04-30T01:50:33.060Z,2.67
2024-04-30T01:53:00.807Z,4.40
2024-04-30T01:55:28.556Z,3.40
2024-04-30T01:57:56.267Z,3.17
2024-04-30T02:00:23.949Z,5.82
2024-04-30T02:02:51.625Z,3.80
2024-04-30T02:05:24.913Z,2.65
2024-04-30T02:07:53.677Z,3.83
2024-04-30T02:10:21.512Z,4.22
2024-04-30T02:12:49.301Z,4.75
2024-04-30T02:15:16.982Z,5.40
2024-04-30T02:17:44.806Z,3.53
2024-04-30T02:20:12.572Z,4.80
2024-04-30T02:22:40.302Z,2.97
2024-04-30T02:25:08.130Z,3.08
2024-04-30T02:27:35.828Z,6.55
2024-04-30T02:30:04.040Z,3.60
2024-04-30T02:32:54.738Z,4.35
2024-04-30T02:35:22.815Z,3.42
2024-04-30T02:37:50.811Z,3.67
2024-04-30T02:40:18.509Z,3.38
2024-04-30T02:42:46.319Z,2.17
2024-04-30T02:45:14.009Z,4.10
2024-04-30T02:47:41.950Z,5.18
2024-04-30T02:50:09.714Z,3.80
2024-04-30T02:52:37.412Z,3.22
2024-04-30T02:55:05.609Z,3.63
2024-04-30T02:57:33.271Z,5.32
2024-04-30T03:00:01.013Z,3.58
2024-04-30T03:02:28.766Z,2.88
2024-04-30T03:04:56.558Z,2.25
2024-04-30T03:07:24.515Z,4.38
2024-04-30T03:09:52.239Z,3.55
2024-04-30T03:12:19.981Z,2.42
2024-04-30T03:14:47.640Z,3.08
2024-04-30T03:17:15.445Z,4.80
2024-04-30T03:19:43.277Z,3.42
2024-04-30T03:22:11.012Z,2.50
2024-04-30T03:24:38.704Z,3.42
2024-04-30T03:27:06.483Z,3.75
2024-04-30T03:29:34.142Z,2.22
2024-04-30T03:32:01.996Z,3.55
2024-04-30T03:34:29.972Z,4.25
2024-04-30T03:36:57.787Z,4.95
2024-04-30T03:39:25.657Z,3.92
2024-04-30T03:41:53.479Z,11.88
2024-04-30T03:44:21.149Z,3.13
2024-04-30T03:46:48.918Z,5.65
2024-04-30T03:49:16.649Z,3.70
2024-04-30T03:51:44.431Z,3.20
2024-04-30T03:54:12.111Z,3.30
2024-04-30T03:56:39.868Z,6.22
2024-04-30T03:59:08.668Z,3.75
2024-04-30T04:01:36.423Z,6.45
2024-04-30T04:04:04.404Z,5.35
2024-04-30T04:06:32.121Z,3.60
2024-04-30T04:09:01.463Z,5.15
2024-04-30T04:11:47.656Z,4.15
2024-04-30T04:14:33.733Z,5.43
2024-04-30T04:17:01.577Z,5.70
2024-04-30T04:19:31.258Z,4.25
2024-04-30T04:21:59.009Z,3.78
2024-04-30T04:24:26.967Z,6.32
2024-04-30T04:26:54.907Z,4.45
2024-04-30T04:29:22.568Z,4.43
2024-04-30T04:31:50.282Z,3.45
2024-04-30T04:34:18.145Z,5.35
2024-04-30T04:36:45.933Z,9.18
2024-04-30T04:39:14.122Z,4.18
2024-04-30T04:41:41.967Z,6.72
2024-04-30T04:44:09.673Z,6.65
2024-04-30T04:46:37.606Z,6.00
2024-04-30T04:49:08.043Z,5.60
2024-04-30T04:51:36.031Z,6.22
2024-04-30T04:54:03.831Z,4.40
2024-04-30T04:56:31.631Z,7.65
2024-04-30T04:58:59.368Z,3.10
2024-04-30T05:01:27.133Z,4.40
2024-04-30T05:03:56.096Z,4.05
2024-04-30T05:06:23.823Z,3.50
2024-04-30T05:08:51.521Z,4.35
2024-04-30T05:11:19.296Z,3.10
2024-04-30T05:13:46.998Z,6.88
2024-04-30T05:16:14.832Z,5.05
2024-04-30T05:18:42.576Z,3.47
2024-04-30T05:21:10.576Z,4.25
2024-04-30T05:23:38.465Z,3.63
2024-04-30T05:26:06.905Z,3.95
2024-04-30T05:28:34.673Z,5.80
2024-04-30T05:31:02.443Z,7.07
2024-04-30T05:33:31.061Z,4.38
2024-04-30T05:35:58.852Z,3.45
2024-04-30T05:38:26.558Z,8.82
2024-04-30T05:40:54.282Z,4.68
2024-04-30T05:43:21.982Z,3.25
2024-04-30T05:45:49.741Z,5.03
2024-04-30T05:48:17.415Z,4.65
2024-04-30T05:50:45.103Z,3.53
2024-04-30T05:53:13.217Z,4.10
2024-04-30T05:55:41.107Z,3.58
2024-04-30T05:58:08.878Z,4.43
2024-04-30T06:00:36.654Z,4.53
2024-04-30T06:03:04.780Z,4.85
2024-04-30T06:05:32.612Z,9.02
2024-04-30T06:08:00.672Z,5.10
2024-04-30T06:10:28.356Z,5.53
2024-04-30T06:12:56.137Z,8.85
2024-04-30T06:15:23.923Z,5.15
2024-04-30T06:17:51.766Z,7.60
2024-04-30T06:20:19.499Z,8.35
2024-04-30T06:22:47.190Z,4.43
2024-04-30T06:25:14.973Z,6.22
2024-04-30T06:27:43.680Z,7.70
2024-04-30T06:30:11.776Z,4.75
2024-04-30T06:32:39.679Z,7.65
2024-04-30T06:35:07.556Z,6.72
2024-04-30T06:37:35.273Z,4.20
2024-04-30T06:40:03.123Z,6.55
2024-04-30T06:42:31.074Z,10.27
2024-04-30T06:44:58.909Z,3.75
2024-04-30T06:47:26.695Z,7.00
2024-04-30T06:49:54.479Z,4.38
2024-04-30T06:52:22.624Z,6.15
2024-04-30T06:54:50.334Z,5.57
2024-04-30T06:57:18.055Z,8.15
2024-04-30T06:59:45.800Z,3.70
2024-04-30T07:02:13.587Z,5.45
2024-04-30T07:04:41.452Z,5.18
2024-04-30T07:07:09.528Z,4.80
2024-04-30T07:09:37.219Z,3.67
2024-04-30T07:12:05.451Z,4.07
2024-04-30T07:14:34.981Z,4.40
2024-04-30T07:17:07.969Z,4.20
2024-04-30T07:19:37.038Z,5.53
2024-04-30T07:22:05.446Z,8.98
2024-04-30T07:24:33.216Z,3.33
2024-04-30T07:27:00.911Z,4.80
2024-04-30T07:29:28.808Z,7.25
2024-04-30T07:31:56.560Z,4.75
2024-04-30T07:34:24.388Z,6.63
2024-04-30T07:36:52.314Z,5.35
2024-04-30T07:39:20.015Z,4.15
2024-04-30T07:41:47.780Z,4.70
2024-04-30T07:44:15.531Z,5.03
2024-04-30T07:46:43.260Z,3.95
2024-04-30T07:49:11.237Z,4.60
2024-04-30T07:51:38.995Z,6.63
2024-04-30T07:54:06.807Z,4.00
2024-04-30T07:56:34.475Z,5.53
2024-04-30T07:59:02.158Z,5.07
2024-04-30T08:01:29.930Z,5.20
2024-04-30T08:03:57.689Z,8.05
2024-04-30T08:06:25.450Z,5.63
2024-04-30T08:08:53.165Z,6.07
2024-04-30T08:11:21.342Z,5.00
2024-04-30T08:13:49.169Z,6.95
2024-04-30T08:16:17.113Z,4.75
2024-04-30T08:18:44.853Z,3.42
2024-04-30T08:21:12.590Z,6.43
2024-04-30T08:23:40.397Z,7.07
2024-04-30T08:26:08.166Z,6.55
2024-04-30T08:28:36.152Z,6.47
2024-04-30T08:31:04.992Z,4.30
2024-04-30T08:33:33.154Z,5.28
2024-04-30T08:36:00.897Z,6.45
2024-04-30T08:38:28.605Z,5.65
2024-04-30T08:40:57.733Z,9.60
2024-04-30T08:43:30.233Z,7.70
2024-04-30T08:46:00.223Z,5.22
2024-04-30T08:48:28.665Z,6.75
2024-04-30T08:50:57.906Z,3.97
2024-04-30T08:53:26.638Z,5.35
2024-04-30T08:55:55.327Z,6.10
2024-04-30T08:58:23.477Z,6.32
2024-04-30T09:00:53.833Z,4.90
2024-04-30T09:03:26.446Z,7.75
2024-04-30T09:05:55.030Z,4.75
2024-04-30T09:08:23.707Z,4.70
2024-04-30T09:10:51.848Z,6.80
2024-04-30T09:13:22.223Z,4.65
2024-04-30T09:16:01.211Z,6.05
2024-04-30T09:18:29.126Z,4.47
2024-04-30T09:21:04.407Z,5.72
2024-04-30T09:23:39.093Z,4.72
2024-04-30T09:26:10.853Z,6.15
2024-04-30T09:28:38.805Z,8.15
2024-04-30T09:31:10.778Z,9.30
2024-04-30T09:33:38.968Z,4.90
2024-04-30T09:36:09.500Z,5.72
2024-04-30T09:38:39.775Z,5.18
2024-04-30T09:41:14.027Z,3.33
2024-04-30T09:43:42.125Z,6.15
2024-04-30T09:46:10.127Z,7.47
2024-04-30T09:48:39.956Z,5.80
2024-04-30T09:51:13.212Z,3.75
2024-04-30T09:53:41.875Z,5.47
2024-04-30T09:56:11.318Z,5.30
2024-04-30T09:58:40.405Z,5.22
2024-04-30T10:01:13.704Z,8.57
2024-04-30T10:03:43.552Z,8.82
2024-04-30T10:06:14.040Z,6.38
2024-04-30T10:08:44.195Z,4.00
2024-04-30T10:11:13.625Z,7.30
2024-04-30T10:13:51.921Z,5.38
2024-04-30T10:16:22.039Z,3.88
2024-04-30T10:19:01.947Z,4.50
2024-04-30T10:21:35.156Z,5.00
2024-04-30T10:24:24.443Z,4.53
2024-04-30T10:26:52.585Z,4.78
2024-04-30T10:29:20.424Z,7.15
2024-04-30T10:31:49.186Z,5.93
2024-04-30T10:34:18.165Z,6.07
2024-04-30T10:37:11.498Z,6.75
2024-04-30T10:39:39.318Z,5.75
2024-04-30T10:42:06.977Z,5.88
2024-04-30T10:44:45.004Z,4.88
2024-04-30T10:47:13.020Z,6.45
2024-04-30T10:49:40.748Z,5.90
2024-04-30T10:52:08.528Z,7.68
2024-04-30T10:54:36.774Z,8.27
2024-04-30T10:57:04.992Z,5.10
2024-04-30T10:59:32.681Z,8.77
2024-04-30T11:02:03.496Z,3.63
2024-04-30T11:04:32.425Z,5.03
2024-04-30T11:07:00.823Z,6.88
2024-04-30T11:09:28.876Z,7.65
2024-04-30T11:12:02.503Z,6.10
2024-04-30T11:14:41.214Z,5.07
2024-04-30T11:17:11.737Z,6.35
2024-04-30T11:19:42.349Z,8.68
2024-04-30T11:22:10.507Z,16.52
2024-04-30T11:24:38.324Z,7.10
2024-04-30T11:27:06.163Z,4.35
2024-04-30T11:29:38.441Z,5.80
2024-04-30T11:32:10.007Z,4.60
2024-04-30T11:34:37.973Z,6.68
2024-04-30T11:37:05.950Z,10.13
2024-04-30T11:39:34.282Z,8.07
2024-04-30T11:42:13.476Z,4.50
2024-04-30T11:44:49.064Z,6.30
2024-04-30T11:47:17.336Z,11.23
2024-04-30T11:49:45.212Z,5.03
2024-04-30T11:52:13.111Z,5.60
2024-04-30T11:54:41.011Z,6.88
2024-04-30T11:57:08.725Z,5.75
2024-04-30T11:59:36.698Z,7.63
2024-04-30T12:02:04.654Z,6.78
2024-04-30T12:04:32.564Z,4.70
2024-04-30T12:07:00.382Z,5.32
2024-04-30T12:09:34.390Z,7.50
2024-04-30T12:12:04.144Z,8.18
2024-04-30T12:14:31.843Z,8.63
2024-04-30T12:16:59.877Z,7.82
2024-04-30T12:19:27.600Z,9.45
2024-04-30T12:21:55.262Z,5.68
2024-04-30T12:24:23.207Z,9.93
2024-04-30T12:26:50.882Z,8.80
2024-04-30T12:29:22.357Z,10.30
2024-04-30T12:31:50.268Z,6.15
2024-04-30T12:34:18.439Z,9.10
2024-04-30T12:36:46.180Z,10.57
2024-04-30T12:39:14.404Z,6.80
2024-04-30T12:41:42.385Z,8.95
2024-04-30T12:44:10.462Z,7.32
2024-04-30T12:46:38.378Z,7.68
2024-04-30T12:49:06.476Z,8.32
2024-04-30T12:51:34.259Z,7.07
2024-04-30T12:54:02.181Z,8.35
2024-04-30T12:56:29.929Z,5.47
2024-04-30T12:58:57.624Z,9.75
2024-04-30T13:01:26.392Z,5.90
2024-04-30T13:03:54.412Z,13.57
2024-04-30T13:06:22.297Z,6.75
2024-04-30T13:08:50.217Z,6.05
2024-04-30T13:11:18.056Z,10.05
2024-04-30T13:13:46.103Z,8.88
2024-04-30T13:16:13.920Z,13.45
2024-04-30T13:18:41.747Z,7.65
2024-04-30T13:21:09.526Z,5.53
2024-04-30T13:23:37.772Z,10.38
2024-04-30T13:26:05.639Z,8.70
2024-04-30T13:28:36.207Z,6.47
2024-04-30T13:31:04.066Z,6.82
2024-04-30T13:33:31.963Z,11.05
2024-04-30T13:35:59.998Z,6.90
2024-04-30T13:38:27.901Z,7.95
2024-04-30T13:40:55.753Z,9.32
2024-04-30T13:43:24.692Z,6.55
2024-04-30T13:45:53.354Z,8.15
2024-04-30T13:48:23.184Z,8.60
2024-04-30T13:50:50.911Z,7.72
2024-04-30T13:53:18.644Z,12.18
2024-04-30T13:55:46.584Z,10.20
2024-04-30T13:58:14.381Z,10.43
2024-04-30T14:00:42.057Z,10.02
2024-04-30T14:03:10.040Z,11.18
2024-04-30T14:05:38.855Z,8.95
2024-04-30T14:08:07.093Z,12.02
2024-04-30T14:10:35.927Z,9.32
2024-04-30T14:13:05.576Z,8.43
2024-04-30T14:15:33.742Z,8.57
2024-04-30T14:18:02.513Z,10.65
2024-04-30T14:20:30.250Z,15.25
2024-04-30T14:22:57.949Z,8.38
2024-04-30T14:25:25.911Z,9.68
2024-04-30T14:27:53.708Z,12.02
2024-04-30T14:30:21.530Z,10.60
2024-04-30T14:32:49.345Z,8.85
2024-04-30T14:35:17.346Z,14.10
2024-04-30T14:37:45.148Z,9.52
2024-04-30T14:40:13.174Z,8.18
2024-04-30T14:42:40.862Z,10.88
2024-04-30T14:45:08.619Z,12.52
2024-04-30T14:47:36.726Z,7.90
2024-04-30T14:50:06.004Z,5.95
2024-04-30T14:52:33.993Z,9.00
2024-04-30T14:55:01.775Z,6.72
2024-04-30T14:57:29.498Z,15.05
2024-04-30T14:59:57.150Z,6.25
2024-04-30T15:02:25.035Z,10.30
2024-04-30T15:04:52.725Z,11.90
2024-04-30T15:07:20.880Z,11.82
2024-04-30T15:09:55.867Z,9.68
2024-04-30T15:12:23.612Z,9.85
2024-04-30T15:14:53.054Z,8.90
2024-04-30T15:17:22.500Z,8.13
2024-04-30T15:19:50.448Z,7.55
2024-04-30T15:22:18.179Z,9.98
2024-04-30T15:24:45.925Z,15.52
2024-04-30T15:27:14.598Z,9.38
2024-04-30T15:29:42.355Z,11.02
2024-04-30T15:32:10.123Z,9.32
2024-04-30T15:34:39.680Z,10.15
2024-04-30T15:37:08.028Z,8.77
2024-04-30T15:39:35.753Z,9.18
2024-04-30T15:42:03.951Z,11.25
2024-04-30T15:44:31.717Z,14.50
2024-04-30T15:46:59.469Z,12.02
2024-04-30T15:49:27.182Z,11.05
2024-04-30T15:51:54.872Z,8.88
2024-04-30T15:54:23.198Z,9.70
2024-04-30T15:56:58.229Z,12.20
2024-04-30T15:59:33.403Z,9.85
2024-04-30T16:02:01.308Z,7.80
2024-04-30T16:04:29.088Z,9.73
2024-04-30T16:06:56.825Z,8.77
2024-04-30T16:09:24.761Z,11.13
2024-04-30T16:11:52.524Z,12.18
2024-04-30T16:14:20.328Z,9.68
2024-04-30T16:16:48.392Z,5.88
2024-04-30T16:19:16.918Z,9.55
2024-04-30T16:21:45.354Z,7.60
2024-04-30T16:24:13.218Z,7.57
2024-04-30T16:26:42.129Z,8.82
2024-04-30T16:29:10.084Z,8.98
2024-04-30T16:31:38.088Z,8.15
2024-04-30T16:34:06.958Z,10.27
2024-04-30T16:36:34.837Z,11.23
2024-04-30T16:39:02.645Z,16.95
2024-04-30T16:41:30.361Z,19.13
2024-04-30T16:43:58.218Z,13.38
2024-04-30T16:46:26.120Z,17.95
2024-04-30T16:48:54.587Z,19.35
2024-04-30T16:51:22.636Z,13.52
2024-04-30T16:53:50.411Z,9.05
2024-04-30T16:56:18.843Z,18.90
2024-04-30T16:58:50.903Z,12.63
2024-04-30T17:01:18.853Z,7.93
2024-04-30T17:03:46.989Z,10.60
2024-04-30T17:06:15.691Z,9.10
2024-04-30T17:08:43.660Z,10.80
2024-04-30T17:11:12.138Z,12.98
2024-04-30T17:13:43.620Z,9.63
2024-04-30T17:16:23.521Z,12.15
2024-04-30T17:18:51.818Z,13.02
2024-04-30T17:21:22.628Z,9.50
2024-04-30T17:23:50.627Z,14.80
2024-04-30T17:26:26.482Z,9.23
2024-04-30T17:28:55.347Z,11.98
2024-04-30T17:31:23.339Z,9.68
2024-04-30T17:33:57.046Z,6.63
2024-04-30T17:36:25.081Z,15.75
2024-04-30T17:38:52.797Z,10.20
2024-04-30T17:41:27.779Z,10.50
2024-04-30T17:43:55.641Z,7.90
2024-04-30T17:46:26.789Z,11.60
2024-04-30T17:48:56.746Z,9.70
2024-04-30T17:51:25.769Z,12.57
2024-04-30T17:53:54.200Z,14.98
2024-04-30T17:56:22.130Z,12.30
2024-04-30T17:58:49.913Z,13.73
2024-04-30T18:01:19.146Z,12.25
2024-04-30T18:03:55.340Z,22.10
2024-04-30T18:06:23.552Z,14.57
2024-04-30T18:08:57.807Z,12.82
2024-04-30T18:11:27.271Z,9.63
2024-04-30T18:13:56.442Z,11.40
2024-04-30T18:16:25.529Z,10.40
2024-04-30T18:18:53.627Z,9.23
2024-04-30T18:21:24.652Z,9.82
2024-04-30T18:23:52.362Z,11.02
2024-04-30T18:26:20.078Z,11.30
2024-04-30T18:28:56.394Z,10.63
2024-04-30T18:31:25.519Z,9.20
2024-04-30T18:33:53.924Z,8.15
2024-04-30T18:36:23.934Z,11.93
2024-04-30T18:38:52.271Z,11.10
2024-04-30T18:41:27.630Z,9.73
2024-04-30T18:43:59.407Z,8.35
2024-04-30T18:46:27.460Z,13.23
2024-04-30T18:48:55.477Z,11.25
2024-04-30T18:51:23.793Z,12.90
2024-04-30T18:53:51.676Z,12.93
2024-04-30T18:56:19.466Z,9.98
2024-04-30T18:58:47.982Z,17.73
2024-04-30T19:01:16.781Z,13.25
2024-04-30T19:03:47.468Z,14.38
2024-04-30T19:06:19.237Z,15.38
2024-04-30T19:08:47.075Z,25.88
2024-04-30T19:11:14.975Z,11.43
2024-04-30T19:13:44.554Z,11.52
2024-04-30T19:16:12.364Z,11.43
2024-04-30T19:18:40.365Z,14.10
2024-04-30T19:21:08.270Z,15.13
2024-04-30T19:23:36.083Z,11.73
2024-04-30T19:26:04.017Z,11.93
2024-04-30T19:28:31.765Z,12.00
2024-04-30T19:30:59.805Z,8.88
2024-04-30T19:33:27.836Z,10.57
2024-04-30T19:35:55.612Z,9.32
2024-04-30T19:38:23.362Z,10.43
2024-04-30T19:40:51.051Z,13.05
2024-04-30T19:43:18.778Z,12.80
2024-04-30T19:45:47.377Z,10.07
2024-04-30T19:48:17.912Z,10.48
2024-04-30T19:50:47.237Z,16.10
2024-04-30T19:53:14.992Z,9.07
2024-04-30T19:55:42.906Z,11.65
2024-04-30T19:58:10.632Z,12.48
2024-04-30T20:00:38.533Z,13.75
2024-04-30T20:03:07.771Z,13.23
2024-04-30T20:05:36.297Z,15.35
2024-04-30T20:08:04.184Z,20.48
2024-04-30T20:10:31.893Z,30.23
2024-04-30T20:12:59.704Z,26.25
2024-04-30T20:15:27.745Z,19.60
2024-04-30T20:17:55.474Z,18.10
2024-04-30T20:20:23.238Z,13.25
2024-04-30T20:22:51.229Z,15.50
2024-04-30T20:25:19.975Z,15.70
2024-04-30T20:27:48.671Z,8.70
2024-04-30T20:30:16.913Z,11.70
2024-04-30T20:32:46.062Z,11.82
2024-04-30T20:35:13.982Z,7.20
2024-04-30T20:37:41.649Z,17.00
2024-04-30T20:40:09.830Z,14.18
2024-04-30T20:42:37.660Z,9.70
2024-04-30T20:45:05.841Z,13.60
2024-04-30T20:47:33.600Z,10.85
2024-04-30T20:50:01.409Z,16.77
2024-04-30T20:52:29.109Z,9.70
2024-04-30T20:54:56.909Z,15.15
2024-04-30T20:57:24.634Z,17.58
2024-04-30T20:59:52.364Z,17.88
2024-04-30T21:02:20.069Z,18.55
2024-04-30T21:04:47.751Z,13.52
2024-04-30T21:07:15.450Z,13.43
2024-04-30T21:09:43.583Z,19.92
2024-04-30T21:12:11.265Z,13.15
2024-04-30T21:14:39.154Z,16.58
2024-04-30T21:17:06.839Z,18.35
2024-04-30T21:19:34.770Z,13.95
2024-04-30T21:22:03.520Z,15.18
2024-04-30T21:24:31.308Z,9.85
2024-04-30T21:26:59.162Z,14.75
2024-04-30T21:29:26.852Z,17.02
2024-04-30T21:31:55.920Z,9.77
2024-04-30T21:34:23.671Z,17.05
2024-04-30T21:36:51.437Z,15.40
2024-04-30T21:39:19.265Z,13.55
2024-04-30T21:41:46.946Z,15.13
2024-04-30T21:44:14.737Z,17.67
2024-04-30T21:46:42.783Z,12.35
2024-04-30T21:49:13.202Z,17.50
2024-04-30T21:51:44.436Z,12.38
2024-04-30T21:54:14.155Z,14.48
2024-04-30T21:56:41.847Z,14.68
2024-04-30T21:59:09.556Z,23.42
2024-04-30T22:01:37.343Z,14.70
2024-04-30T22:04:05.404Z,18.17
2024-04-30T22:06:33.356Z,17.63
2024-04-30T22:09:01.638Z,11.82
2024-04-30T22:11:29.445Z,13.80
2024-04-30T22:13:57.226Z,14.20
2024-04-30T22:16:24.932Z,11.25
2024-04-30T22:18:52.643Z,19.52
2024-04-30T22:21:22.700Z,13.55
2024-04-30T22:23:52.162Z,12.10
2024-04-30T22:26:19.893Z,11.98
2024-04-30T22:28:47.598Z,19.35
2024-04-30T22:31:15.581Z,16.48
2024-04-30T22:33:43.367Z,10.70
2024-04-30T22:36:11.132Z,17.20
2024-04-30T22:38:39.256Z,12.63
2024-04-30T22:41:07.412Z,13.10
2024-04-30T22:43:35.141Z,14.80
2024-04-30T22:46:02.850Z,15.32
2024-04-30T22:48:30.783Z,13.27
2024-04-30T22:50:58.750Z,10.20
2024-04-30T22:53:29.113Z,14.13
2024-04-30T22:55:58.776Z,19.38
2024-04-30T22:58:26.521Z,18.17
2024-04-30T23:00:54.393Z,12.00
2024-04-30T23:03:22.250Z,11.23
2024-04-30T23:05:50.189Z,12.43
2024-04-30T23:08:17.841Z,15.02
2024-04-30T23:10:45.660Z,9.93
2024-04-30T23:13:13.383Z,19.88
2024-04-30T23:15:41.230Z,20.92
2024-04-30T23:18:09.520Z,19.80
2024-04-30T23:20:37.259Z,12.23
2024-04-30T23:23:05.079Z,16.42
2024-04-30T23:25:32.775Z,14.82
2024-04-30T23:28:00.565Z,13.75
2024-04-30T23:30:28.335Z,20.08
2024-04-30T23:32:56.073Z,16.27
2024-04-30T23:35:23.856Z,20.08
2024-04-30T23:37:51.538Z,14.50
2024-04-30T23:40:19.217Z,17.65
2024-04-30T23:42:46.929Z,21.90
2024-04-30T23:45:14.799Z,20.90
2024-04-30T23:47:42.493Z,16.20
2024-04-30T23:50:10.234Z,17.50
2024-04-30T23:52:38.058Z,17.52
2024-04-30T23:55:06.286Z,19.77
2024-04-30T23:57:34.040Z,16.10
